createdAt,value
2023-05-09T00:02:54.222Z,101225.84
2023-05-09T00:05:56.967Z,101228.41
2023-05-09T00:08:59.338Z,101228.38
2023-05-09T00:12:02.565Z,101223.97
2023-05-09T00:15:08.208Z,101226.69
2023-05-09T00:18:11.226Z,101225.12
2023-05-09T00:21:13.591Z,101220.84
2023-05-09T00:24:16.340Z,101216.53
2023-05-09T00:27:19.179Z,101221.72
2023-05-09T00:30:21.851Z,101213.50
2023-05-09T00:33:26.881Z,101218.59
2023-05-09T00:36:29.519Z,101212.50
2023-05-09T00:39:31.888Z,101215.84
2023-05-09T00:42:35.527Z,101213.37
2023-05-09T00:45:37.943Z,101211.16
2023-05-09T00:48:40.870Z,101214.59
2023-05-09T00:51:43.604Z,101213.66
2023-05-09T00:54:46.189Z,101200.59
2023-05-09T00:57:48.831Z,101207.69
2023-05-09T01:00:51.604Z,101209.69
2023-05-09T01:03:54.978Z,101216.87
2023-05-09T01:07:27.287Z,101219.38
2023-05-09T01:10:41.766Z,101213.25
2023-05-09T01:14:16.824Z,101217.53
2023-05-09T01:17:23.983Z,101215.88
2023-05-09T01:20:51.851Z,101216.41
2023-05-09T01:24:00.755Z,101214.75
2023-05-09T01:27:22.129Z,101208.59
2023-05-09T01:30:26.452Z,101210.63
2023-05-09T01:33:33.798Z,101211.44
2023-05-09T01:36:38.059Z,101214.72
2023-05-09T01:39:44.954Z,101207.84
2023-05-09T01:42:59.712Z,101206.19
2023-05-09T01:46:05.320Z,101205.38
2023-05-09T01:49:09.282Z,101195.84
2023-05-09T01:52:15.246Z,101193.44
2023-05-09T01:55:21.579Z,101199.63
2023-05-09T01:58:26.964Z,101196.25
2023-05-09T02:01:30.376Z,101197.19
2023-05-09T02:04:33.626Z,101197.19
2023-05-09T02:07:37.119Z,101188.50
2023-05-09T02:10:39.904Z,101181.97
2023-05-09T02:13:42.493Z,101186.25
2023-05-09T02:16:45.376Z,101187.16
2023-05-09T02:19:48.313Z,101181.97
2023-05-09T02:22:50.815Z,101182.87
2023-05-09T02:25:54.704Z,101192.56
2023-05-09T02:28:58.953Z,101192.56
2023-05-09T02:32:03.021Z,101182.22
2023-05-09T02:35:09.379Z,101182.28
2023-05-09T02:38:13.210Z,101182.34
2023-05-09T02:41:16.234Z,101187.59
2023-05-09T02:44:19.004Z,101178.94
2023-05-09T02:47:21.866Z,101172.91
2023-05-09T02:50:24.970Z,101178.31
2023-05-09T02:53:27.621Z,101179.37
2023-05-09T02:56:30.385Z,101181.94
2023-05-09T02:59:33.388Z,101175.87
2023-05-09T03:02:37.515Z,101168.91
2023-05-09T03:05:40.937Z,101168.94
2023-05-09T03:08:43.665Z,101167.16
2023-05-09T03:11:46.380Z,101167.25
2023-05-09T03:14:49.022Z,101166.50
2023-05-09T03:17:51.472Z,101163.00
2023-05-09T03:20:54.238Z,101168.47
2023-05-09T03:23:56.795Z,101157.97
2023-05-09T03:26:59.376Z,101157.97
2023-05-09T03:30:01.874Z,101166.56
2023-05-09T03:33:05.018Z,101173.44
2023-05-09T03:36:07.874Z,101170.91
2023-05-09T03:39:11.001Z,101173.47
2023-05-09T03:42:14.329Z,101170.81
2023-05-09T03:45:17.603Z,101173.44
2023-05-09T03:48:20.610Z,101176.84
2023-05-09T03:51:23.417Z,101176.94
2023-05-09T03:54:26.018Z,101179.41
2023-05-09T03:57:28.908Z,101179.34
2023-05-09T04:00:31.990Z,101186.22
2023-05-09T04:03:37.601Z,101186.19
2023-05-09T04:06:40.622Z,101174.69
2023-05-09T04:09:43.900Z,101177.88
2023-05-09T04:12:46.721Z,101188.28
2023-05-09T04:15:50.515Z,101189.56
2023-05-09T04:18:52.874Z,101171.88
2023-05-09T04:21:55.798Z,101183.97
2023-05-09T04:24:58.157Z,101186.66
2023-05-09T04:28:01.720Z,101185.56
2023-05-09T04:31:04.509Z,101185.44
2023-05-09T04:34:08.033Z,101185.91
2023-05-09T04:37:11.144Z,101186.84
2023-05-09T04:40:14.561Z,101177.69
2023-05-09T04:43:18.036Z,101184.72
2023-05-09T04:46:21.032Z,101202.13
2023-05-09T04:49:24.320Z,101194.06
2023-05-09T04:52:26.904Z,101184.56
2023-05-09T04:55:29.310Z,101189.50
2023-05-09T04:58:34.366Z,101187.84
2023-05-09T05:01:37.375Z,101190.19
2023-05-09T05:04:40.676Z,101192.91
2023-05-09T05:07:43.504Z,101184.03
2023-05-09T05:10:47.496Z,101189.69
2023-05-09T05:13:50.564Z,101198.03
2023-05-09T05:16:53.283Z,101199.31
2023-05-09T05:19:57.803Z,101203.44
2023-05-09T05:23:02.364Z,101197.88
2023-05-09T05:26:05.219Z,101199.44
2023-05-09T05:29:08.517Z,101200.75
2023-05-09T05:32:11.056Z,101203.75
2023-05-09T05:35:14.162Z,101200.66
2023-05-09T05:38:17.013Z,101204.53
2023-05-09T05:41:20.849Z,101202.16
2023-05-09T05:44:24.236Z,101194.72
2023-05-09T05:47:26.982Z,101196.37
2023-05-09T05:50:29.910Z,101189.97
2023-05-09T05:53:32.900Z,101202.25
2023-05-09T05:56:35.602Z,101201.09
2023-05-09T05:59:38.313Z,101201.59
2023-05-09T06:02:44.907Z,101203.69
2023-05-09T06:05:49.731Z,101200.84
2023-05-09T06:08:52.487Z,101201.06
2023-05-09T06:11:56.188Z,101198.59
2023-05-09T06:14:58.759Z,101186.03
2023-05-09T06:18:01.968Z,101199.22
2023-05-09T06:21:04.681Z,101199.97
2023-05-09T06:24:12.230Z,101203.59
2023-05-09T06:27:19.503Z,101189.41
2023-05-09T06:30:26.409Z,101190.38
2023-05-09T06:33:29.323Z,101187.84
2023-05-09T06:36:32.363Z,101179.09
2023-05-09T06:39:34.740Z,101182.50
2023-05-09T06:42:37.509Z,101184.19
2023-05-09T06:45:39.822Z,101181.06
2023-05-09T06:48:42.592Z,101176.47
2023-05-09T06:51:44.922Z,101170.34
2023-05-09T06:54:47.658Z,101169.94
2023-05-09T06:57:49.999Z,101170.28
2023-05-09T07:00:52.930Z,101163.09
2023-05-09T07:03:55.251Z,101165.78
2023-05-09T07:06:59.228Z,101163.00
2023-05-09T07:10:11.214Z,101159.44
2023-05-09T07:13:14.930Z,101154.09
2023-05-09T07:16:18.516Z,101153.88
2023-05-09T07:19:21.246Z,101157.66
2023-05-09T07:22:23.736Z,101154.41
2023-05-09T07:25:26.378Z,101142.69
2023-05-09T07:28:28.744Z,101144.41
2023-05-09T07:31:31.505Z,101149.19
2023-05-09T07:34:33.852Z,101141.09
2023-05-09T07:37:36.743Z,101130.97
2023-05-09T07:40:39.253Z,101127.22
2023-05-09T07:43:41.934Z,101129.72
2023-05-09T07:46:44.234Z,101130.84
2023-05-09T07:49:48.022Z,101126.81
2023-05-09T07:52:51.238Z,101129.81
2023-05-09T07:55:53.948Z,101123.34
2023-05-09T07:58:56.224Z,101128.28
2023-05-09T08:01:58.871Z,101108.94
2023-05-09T08:05:01.782Z,101107.78
2023-05-09T08:08:04.653Z,101100.44
2023-05-09T08:11:07.668Z,101104.41
2023-05-09T08:14:10.460Z,101095.63
2023-05-09T08:17:13.025Z,101100.06
2023-05-09T08:20:15.424Z,101098.41
2023-05-09T08:23:18.111Z,101085.53
2023-05-09T08:26:22.625Z,101091.16
2023-05-09T08:29:25.353Z,101080.78
2023-05-09T08:32:27.778Z,101080.41
2023-05-09T08:35:30.638Z,101085.41
2023-05-09T08:38:32.957Z,101085.69
2023-05-09T08:41:36.173Z,101077.91
2023-05-09T08:44:38.779Z,101076.53
2023-05-09T08:47:42.280Z,101078.03
2023-05-09T08:50:45.184Z,101078.28
2023-05-09T08:53:47.895Z,101066.03
2023-05-09T08:56:51.011Z,101073.87
2023-05-09T08:59:55.075Z,101067.34
2023-05-09T09:03:00.725Z,101064.34
2023-05-09T09:06:03.899Z,101064.66
2023-05-09T09:09:11.465Z,101063.41
2023-05-09T09:12:16.420Z,101054.03
2023-05-09T09:15:20.505Z,101052.72
2023-05-09T09:18:29.362Z,101047.16
2023-05-09T09:21:32.220Z,101052.47
2023-05-09T09:24:35.886Z,101040.19
2023-05-09T09:27:38.393Z,101048.09
2023-05-09T09:30:47.475Z,101043.75
2023-05-09T09:33:51.447Z,101053.91
2023-05-09T09:36:54.131Z,101046.44
2023-05-09T09:39:56.917Z,101043.75
2023-05-09T09:42:59.548Z,101039.31
2023-05-09T09:46:03.851Z,101047.81
2023-05-09T09:49:09.387Z,101059.28
2023-05-09T09:52:11.888Z,101047.78
2023-05-09T09:55:14.698Z,101035.47
2023-05-09T09:58:18.495Z,101040.47
2023-05-09T10:01:21.238Z,101033.19
2023-05-09T10:04:25.578Z,101038.06
2023-05-09T10:07:34.140Z,101024.03
2023-05-09T10:10:37.496Z,101009.97
2023-05-09T10:13:39.845Z,101018.28
2023-05-09T10:16:44.749Z,101013.34
2023-05-09T10:19:49.605Z,101014.47
2023-05-09T10:23:01.110Z,101014.78
2023-05-09T10:26:25.633Z,101024.44
2023-05-09T10:29:32.277Z,101012.44
2023-05-09T10:32:43.995Z,101016.37
2023-05-09T10:35:48.204Z,101007.78
2023-05-09T10:38:53.948Z,100999.53
2023-05-09T10:41:59.182Z,101001.94
2023-05-09T10:45:02.122Z,101002.16
2023-05-09T10:48:08.773Z,101011.72
2023-05-09T10:51:12.722Z,101011.16
2023-05-09T10:54:25.440Z,101001.44
2023-05-09T10:57:31.972Z,101002.31
2023-05-09T11:00:41.569Z,101005.28
2023-05-09T11:03:57.816Z,101003.97
2023-05-09T11:07:00.899Z,101011.53
2023-05-09T11:10:10.988Z,101005.53
2023-05-09T11:13:13.728Z,100996.63
2023-05-09T11:16:16.391Z,100990.78
2023-05-09T11:19:45.700Z,100984.97
2023-05-09T11:22:53.029Z,100980.75
2023-05-09T11:26:05.628Z,100978.38
2023-05-09T11:29:10.080Z,100981.53
2023-05-09T11:32:16.094Z,100971.59
2023-05-09T11:35:21.377Z,100969.91
2023-05-09T11:38:25.641Z,100976.69
2023-05-09T11:41:28.791Z,100971.06
2023-05-09T11:44:33.424Z,100965.53
2023-05-09T11:47:39.644Z,100965.13
2023-05-09T11:50:42.482Z,100967.34
2023-05-09T11:53:46.891Z,100956.53
2023-05-09T11:56:49.791Z,100952.81
2023-05-09T11:59:52.801Z,100959.31
2023-05-09T12:02:55.752Z,100956.66
2023-05-09T12:05:58.578Z,100942.34
2023-05-09T12:09:00.968Z,100937.66
2023-05-09T12:12:11.776Z,100938.91
2023-05-09T12:15:15.672Z,100944.75
2023-05-09T12:18:18.577Z,100934.34
2023-05-09T12:21:21.774Z,100936.06
2023-05-09T12:24:29.303Z,100934.78
2023-05-09T12:27:33.026Z,100925.22
2023-05-09T12:30:35.983Z,100922.78
2023-05-09T12:33:39.536Z,100918.47
2023-05-09T12:36:50.542Z,100914.31
2023-05-09T12:40:09.400Z,100912.66
2023-05-09T12:43:14.062Z,100910.12
2023-05-09T12:46:20.444Z,100912.13
2023-05-09T12:49:23.991Z,100900.59
2023-05-09T12:52:33.424Z,100894.97
2023-05-09T12:55:44.008Z,100892.59
2023-05-09T12:58:51.243Z,100891.19
2023-05-09T13:01:59.146Z,100888.31
2023-05-09T13:05:10.223Z,100883.38
2023-05-09T13:08:12.877Z,100879.03
2023-05-09T13:11:17.385Z,100882.62
2023-05-09T13:14:22.489Z,100874.66
2023-05-09T13:17:25.029Z,100868.03
2023-05-09T13:20:27.817Z,100865.25
2023-05-09T13:23:30.268Z,100862.06
2023-05-09T13:26:33.857Z,100854.50
2023-05-09T13:29:41.003Z,100856.09
2023-05-09T13:32:44.784Z,100859.81
2023-05-09T13:35:49.857Z,100848.09
2023-05-09T13:38:52.652Z,100856.63
2023-05-09T13:41:57.587Z,100854.69
2023-05-09T13:45:03.350Z,100854.22
2023-05-09T13:48:06.022Z,100849.97
2023-05-09T13:51:09.949Z,100850.56
2023-05-09T13:54:17.305Z,100843.28
2023-05-09T13:57:20.067Z,100836.75
2023-05-09T14:00:24.573Z,100829.44
2023-05-09T14:03:27.511Z,100829.03
2023-05-09T14:06:30.600Z,100825.78
2023-05-09T14:09:39.729Z,100817.81
2023-05-09T14:12:44.343Z,100814.22
2023-05-09T14:15:47.246Z,100812.19
2023-05-09T14:18:49.545Z,100818.34
2023-05-09T14:21:52.120Z,100818.12
2023-05-09T14:24:56.465Z,100820.41
2023-05-09T14:28:00.220Z,100811.25
2023-05-09T14:31:03.441Z,100802.59
2023-05-09T14:34:06.327Z,100807.47
2023-05-09T14:37:13.706Z,100803.81
2023-05-09T14:40:16.703Z,100802.31
2023-05-09T14:43:19.326Z,100802.25
2023-05-09T14:46:24.650Z,100797.34
2023-05-09T14:49:27.056Z,100795.75
2023-05-09T14:52:29.731Z,100796.25
2023-05-09T14:55:32.457Z,100803.66
2023-05-09T14:58:35.702Z,100794.53
2023-05-09T15:01:38.188Z,100791.47
2023-05-09T15:04:43.785Z,100781.25
2023-05-09T15:07:46.468Z,100787.75
2023-05-09T15:10:50.801Z,100783.59
2023-05-09T15:13:53.375Z,100776.94
2023-05-09T15:16:59.119Z,100780.75
2023-05-09T15:20:02.864Z,100767.97
2023-05-09T15:23:07.524Z,100762.47
2023-05-09T15:26:12.260Z,100764.31
2023-05-09T15:29:14.949Z,100753.50
2023-05-09T15:32:17.947Z,100762.09
2023-05-09T15:35:20.705Z,100757.69
2023-05-09T15:38:23.124Z,100750.44
2023-05-09T15:41:26.169Z,100752.59
2023-05-09T15:44:28.557Z,100747.38
2023-05-09T15:47:31.118Z,100753.56
2023-05-09T15:50:33.783Z,100749.41
